sensor_id;sensor_type;location;lat;lon;timestamp;P1;durP1;ratioP1;P2;durP2;ratioP2
77298;SDS011;66361;52.034;20.656;2023-05-10T00:02:50;7.45;;;5.40;;
77298;SDS011;66361;52.034;20.656;2023-05-10T00:06:54;8.18;;;5.65;;
77298;SDS011;66361;52.034;20.656;2023-05-10T00:10:57;8.57;;;4.80;;
77298;SDS011;66361;52.034;20.656;2023-05-10T00:14:59;10.05;;;6.03;;
77298;SDS011;66361;52.034;20.656;2023-05-10T00:19:03;11.32;;;6.18;;
77298;SDS011;66361;52.034;20.656;2023-05-10T00:23:06;11.52;;;5.88;;
77298;SDS011;66361;52.034;20.656;2023-05-10T00:27:09;8.80;;;6.63;;
77298;SDS011;66361;52.034;20.656;2023-05-10T00:31:12;8.85;;;6.82;;
77298;SDS011;66361;52.034;20.656;2023-05-10T00:35:17;9.30;;;6.68;;
77298;SDS011;66361;52.034;20.656;2023-05-10T00:39:20;10.60;;;5.75;;
77298;SDS011;66361;52.034;20.656;2023-05-10T00:43:23;9.90;;;6.07;;
77298;SDS011;66361;52.034;20.656;2023-05-10T00:47:26;11.38;;;6.13;;
77298;SDS011;66361;52.034;20.656;2023-05-10T00:51:31;11.32;;;6.80;;
77298;SDS011;66361;52.034;20.656;2023-05-10T00:55:34;10.23;;;6.20;;
77298;SDS011;66361;52.034;20.656;2023-05-10T00:59:37;10.90;;;6.47;;
77298;SDS011;66361;52.034;20.656;2023-05-10T01:03:40;9.23;;;6.05;;
77298;SDS011;66361;52.034;20.656;2023-05-10T01:07:45;9.35;;;5.43;;
77298;SDS011;66361;52.034;20.656;2023-05-10T01:11:48;12.00;;;7.55;;
77298;SDS011;66361;52.034;20.656;2023-05-10T01:15:52;9.82;;;6.50;;
77298;SDS011;66361;52.034;20.656;2023-05-10T01:19:55;8.32;;;6.10;;
77298;SDS011;66361;52.034;20.656;2023-05-10T01:28:42;9.80;;;6.57;;
77298;SDS011;66361;52.034;20.656;2023-05-10T01:33:02;12.68;;;6.57;;
77298;SDS011;66361;52.034;20.656;2023-05-10T01:37:15;10.95;;;6.50;;
77298;SDS011;66361;52.034;20.656;2023-05-10T01:41:24;11.20;;;8.05;;
77298;SDS011;66361;52.034;20.656;2023-05-10T01:49:41;10.00;;;6.32;;
77298;SDS011;66361;52.034;20.656;2023-05-10T01:53:47;9.38;;;5.82;;
77298;SDS011;66361;52.034;20.656;2023-05-10T01:57:52;11.38;;;7.10;;
77298;SDS011;66361;52.034;20.656;2023-05-10T02:02:02;9.40;;;6.85;;
77298;SDS011;66361;52.034;20.656;2023-05-10T02:06:10;11.95;;;7.57;;
77298;SDS011;66361;52.034;20.656;2023-05-10T02:10:15;9.60;;;6.75;;
77298;SDS011;66361;52.034;20.656;2023-05-10T02:14:19;12.45;;;8.77;;
77298;SDS011;66361;52.034;20.656;2023-05-10T02:18:25;12.35;;;7.80;;
77298;SDS011;66361;52.034;20.656;2023-05-10T02:22:31;11.23;;;7.72;;
77298;SDS011;66361;52.034;20.656;2023-05-10T02:26:35;10.93;;;6.80;;
77298;SDS011;66361;52.034;20.656;2023-05-10T02:30:40;8.35;;;5.90;;
77298;SDS011;66361;52.034;20.656;2023-05-10T02:38:49;10.07;;;6.72;;
77298;SDS011;66361;52.034;20.656;2023-05-10T02:42:54;11.10;;;7.50;;
77298;SDS011;66361;52.034;20.656;2023-05-10T02:46:59;9.40;;;6.20;;
77298;SDS011;66361;52.034;20.656;2023-05-10T02:51:04;10.32;;;5.95;;
77298;SDS011;66361;52.034;20.656;2023-05-10T02:55:11;11.23;;;7.10;;
77298;SDS011;66361;52.034;20.656;2023-05-10T02:59:17;11.13;;;7.47;;
77298;SDS011;66361;52.034;20.656;2023-05-10T03:03:22;12.85;;;7.18;;
77298;SDS011;66361;52.034;20.656;2023-05-10T03:07:25;9.93;;;7.53;;
77298;SDS011;66361;52.034;20.656;2023-05-10T03:11:32;10.35;;;6.53;;
77298;SDS011;66361;52.034;20.656;2023-05-10T03:15:47;12.27;;;7.10;;
77298;SDS011;66361;52.034;20.656;2023-05-10T03:20:04;9.90;;;6.88;;
77298;SDS011;66361;52.034;20.656;2023-05-10T03:24:12;10.38;;;6.78;;
77298;SDS011;66361;52.034;20.656;2023-05-10T03:28:19;11.63;;;6.82;;
77298;SDS011;66361;52.034;20.656;2023-05-10T03:32:23;10.85;;;6.30;;
77298;SDS011;66361;52.034;20.656;2023-05-10T03:36:28;8.15;;;5.90;;
77298;SDS011;66361;52.034;20.656;2023-05-10T03:40:30;10.38;;;5.63;;
77298;SDS011;66361;52.034;20.656;2023-05-10T03:44:35;11.73;;;7.85;;
77298;SDS011;66361;52.034;20.656;2023-05-10T03:48:37;9.70;;;6.43;;
77298;SDS011;66361;52.034;20.656;2023-05-10T03:52:41;11.30;;;7.00;;
77298;SDS011;66361;52.034;20.656;2023-05-10T03:56:44;7.93;;;5.65;;
77298;SDS011;66361;52.034;20.656;2023-05-10T04:00:50;9.38;;;5.15;;
77298;SDS011;66361;52.034;20.656;2023-05-10T04:04:54;11.07;;;5.68;;
77298;SDS011;66361;52.034;20.656;2023-05-10T04:08:57;10.10;;;6.63;;
77298;SDS011;66361;52.034;20.656;2023-05-10T04:13:05;9.80;;;5.72;;
77298;SDS011;66361;52.034;20.656;2023-05-10T04:17:10;8.05;;;5.28;;
77298;SDS011;66361;52.034;20.656;2023-05-10T04:21:13;7.30;;;5.70;;
77298;SDS011;66361;52.034;20.656;2023-05-10T04:25:16;9.68;;;5.00;;
77298;SDS011;66361;52.034;20.656;2023-05-10T04:33:24;7.43;;;5.07;;
77298;SDS011;66361;52.034;20.656;2023-05-10T04:37:27;7.53;;;5.43;;
77298;SDS011;66361;52.034;20.656;2023-05-10T04:41:30;9.48;;;5.47;;
77298;SDS011;66361;52.034;20.656;2023-05-10T04:45:34;9.45;;;5.95;;
77298;SDS011;66361;52.034;20.656;2023-05-10T04:49:40;9.23;;;5.50;;
77298;SDS011;66361;52.034;20.656;2023-05-10T04:53:43;7.03;;;5.22;;
77298;SDS011;66361;52.034;20.656;2023-05-10T04:58:01;7.95;;;4.65;;
77298;SDS011;66361;52.034;20.656;2023-05-10T05:02:04;7.18;;;5.03;;
77298;SDS011;66361;52.034;20.656;2023-05-10T05:06:09;9.13;;;5.82;;
77298;SDS011;66361;52.034;20.656;2023-05-10T05:10:12;7.55;;;5.43;;
77298;SDS011;66361;52.034;20.656;2023-05-10T05:14:15;7.68;;;5.22;;
77298;SDS011;66361;52.034;20.656;2023-05-10T05:18:19;7.93;;;5.32;;
77298;SDS011;66361;52.034;20.656;2023-05-10T05:22:23;7.25;;;5.47;;
77298;SDS011;66361;52.034;20.656;2023-05-10T05:26:28;9.85;;;5.35;;
77298;SDS011;66361;52.034;20.656;2023-05-10T05:30:31;6.57;;;5.82;;
77298;SDS011;66361;52.034;20.656;2023-05-10T05:34:34;7.72;;;5.00;;
77298;SDS011;66361;52.034;20.656;2023-05-10T05:38:39;8.90;;;4.63;;
77298;SDS011;66361;52.034;20.656;2023-05-10T05:42:42;8.60;;;4.70;;
77298;SDS011;66361;52.034;20.656;2023-05-10T05:46:45;7.15;;;5.13;;
77298;SDS011;66361;52.034;20.656;2023-05-10T05:50:48;5.97;;;4.40;;
77298;SDS011;66361;52.034;20.656;2023-05-10T05:54:52;4.38;;;3.70;;
77298;SDS011;66361;52.034;20.656;2023-05-10T05:58:56;6.05;;;4.03;;
77298;SDS011;66361;52.034;20.656;2023-05-10T06:02:58;6.00;;;4.38;;
77298;SDS011;66361;52.034;20.656;2023-05-10T06:07:02;5.90;;;5.03;;
77298;SDS011;66361;52.034;20.656;2023-05-10T06:11:06;6.78;;;3.75;;
77298;SDS011;66361;52.034;20.656;2023-05-10T06:15:09;5.38;;;3.50;;
77298;SDS011;66361;52.034;20.656;2023-05-10T06:19:13;6.20;;;3.53;;
77298;SDS011;66361;52.034;20.656;2023-05-10T06:23:15;5.53;;;3.63;;
77298;SDS011;66361;52.034;20.656;2023-05-10T06:27:20;6.22;;;3.25;;
77298;SDS011;66361;52.034;20.656;2023-05-10T06:31:24;5.13;;;3.25;;
77298;SDS011;66361;52.034;20.656;2023-05-10T06:35:27;4.22;;;3.22;;
77298;SDS011;66361;52.034;20.656;2023-05-10T06:39:30;4.95;;;3.00;;
77298;SDS011;66361;52.034;20.656;2023-05-10T06:43:35;6.50;;;3.53;;
77298;SDS011;66361;52.034;20.656;2023-05-10T06:47:41;7.13;;;3.20;;
77298;SDS011;66361;52.034;20.656;2023-05-10T06:51:44;3.13;;;2.72;;
77298;SDS011;66361;52.034;20.656;2023-05-10T06:55:48;5.22;;;2.92;;
77298;SDS011;66361;52.034;20.656;2023-05-10T06:59:53;4.78;;;2.92;;
77298;SDS011;66361;52.034;20.656;2023-05-10T07:03:56;4.50;;;2.97;;
77298;SDS011;66361;52.034;20.656;2023-05-10T07:08:00;3.55;;;2.90;;
77298;SDS011;66361;52.034;20.656;2023-05-10T07:12:03;4.22;;;2.95;;
77298;SDS011;66361;52.034;20.656;2023-05-10T07:16:11;6.78;;;3.03;;
77298;SDS011;66361;52.034;20.656;2023-05-10T07:20:14;4.13;;;2.80;;
77298;SDS011;66361;52.034;20.656;2023-05-10T07:24:18;3.70;;;2.78;;
77298;SDS011;66361;52.034;20.656;2023-05-10T07:28:21;5.47;;;2.78;;
77298;SDS011;66361;52.034;20.656;2023-05-10T07:32:26;6.45;;;2.85;;
77298;SDS011;66361;52.034;20.656;2023-05-10T07:36:30;5.45;;;2.83;;
77298;SDS011;66361;52.034;20.656;2023-05-10T07:40:33;4.68;;;3.13;;
77298;SDS011;66361;52.034;20.656;2023-05-10T07:44:37;2.85;;;2.30;;
77298;SDS011;66361;52.034;20.656;2023-05-10T07:48:41;3.97;;;2.38;;
77298;SDS011;66361;52.034;20.656;2023-05-10T07:52:47;4.07;;;2.30;;
77298;SDS011;66361;52.034;20.656;2023-05-10T07:56:50;5.30;;;2.80;;
77298;SDS011;66361;52.034;20.656;2023-05-10T08:00:53;5.10;;;2.25;;
77298;SDS011;66361;52.034;20.656;2023-05-10T08:04:59;7.03;;;2.80;;
77298;SDS011;66361;52.034;20.656;2023-05-10T08:09:01;6.28;;;2.35;;
77298;SDS011;66361;52.034;20.656;2023-05-10T08:13:04;8.43;;;3.92;;
77298;SDS011;66361;52.034;20.656;2023-05-10T08:17:07;4.78;;;2.33;;
77298;SDS011;66361;52.034;20.656;2023-05-10T08:21:12;3.42;;;2.63;;
77298;SDS011;66361;52.034;20.656;2023-05-10T08:25:15;3.28;;;2.38;;
77298;SDS011;66361;52.034;20.656;2023-05-10T08:29:18;3.53;;;2.67;;
77298;SDS011;66361;52.034;20.656;2023-05-10T08:33:22;6.32;;;2.88;;
77298;SDS011;66361;52.034;20.656;2023-05-10T08:37:26;4.47;;;2.22;;
77298;SDS011;66361;52.034;20.656;2023-05-10T08:41:33;4.28;;;2.42;;
77298;SDS011;66361;52.034;20.656;2023-05-10T08:45:39;5.10;;;2.22;;
77298;SDS011;66361;52.034;20.656;2023-05-10T08:49:43;4.55;;;2.65;;
77298;SDS011;66361;52.034;20.656;2023-05-10T08:53:50;5.60;;;2.17;;
77298;SDS011;66361;52.034;20.656;2023-05-10T08:57:54;4.78;;;2.40;;
77298;SDS011;66361;52.034;20.656;2023-05-10T09:01:57;3.97;;;2.42;;
77298;SDS011;66361;52.034;20.656;2023-05-10T09:06:01;3.03;;;2.53;;
77298;SDS011;66361;52.034;20.656;2023-05-10T09:10:08;4.05;;;2.70;;
77298;SDS011;66361;52.034;20.656;2023-05-10T09:14:14;4.07;;;2.08;;
77298;SDS011;66361;52.034;20.656;2023-05-10T09:18:21;4.03;;;2.00;;
77298;SDS011;66361;52.034;20.656;2023-05-10T09:22:26;3.70;;;2.47;;
77298;SDS011;66361;52.034;20.656;2023-05-10T09:26:31;2.97;;;2.30;;
77298;SDS011;66361;52.034;20.656;2023-05-10T09:30:35;4.63;;;2.10;;
77298;SDS011;66361;52.034;20.656;2023-05-10T09:34:38;4.60;;;2.33;;
77298;SDS011;66361;52.034;20.656;2023-05-10T09:38:46;3.47;;;2.55;;
77298;SDS011;66361;52.034;20.656;2023-05-10T09:42:55;3.90;;;2.40;;
77298;SDS011;66361;52.034;20.656;2023-05-10T09:46:59;3.45;;;2.45;;
77298;SDS011;66361;52.034;20.656;2023-05-10T09:51:02;3.42;;;2.58;;
77298;SDS011;66361;52.034;20.656;2023-05-10T09:55:08;3.33;;;2.45;;
77298;SDS011;66361;52.034;20.656;2023-05-10T09:59:16;7.13;;;3.65;;
77298;SDS011;66361;52.034;20.656;2023-05-10T10:03:20;3.28;;;2.10;;
77298;SDS011;66361;52.034;20.656;2023-05-10T10:07:25;5.30;;;2.78;;
77298;SDS011;66361;52.034;20.656;2023-05-10T10:11:29;2.88;;;2.50;;
77298;SDS011;66361;52.034;20.656;2023-05-10T10:15:34;4.72;;;2.30;;
77298;SDS011;66361;52.034;20.656;2023-05-10T10:19:37;4.50;;;3.55;;
77298;SDS011;66361;52.034;20.656;2023-05-10T10:23:40;6.32;;;2.72;;
77298;SDS011;66361;52.034;20.656;2023-05-10T10:27:52;3.72;;;2.10;;
77298;SDS011;66361;52.034;20.656;2023-05-10T10:32:09;2.55;;;2.15;;
77298;SDS011;66361;52.034;20.656;2023-05-10T10:36:23;2.58;;;2.20;;
77298;SDS011;66361;52.034;20.656;2023-05-10T10:40:28;5.05;;;2.53;;
77298;SDS011;66361;52.034;20.656;2023-05-10T10:44:36;5.68;;;2.40;;
77298;SDS011;66361;52.034;20.656;2023-05-10T10:48:43;3.25;;;2.30;;
77298;SDS011;66361;52.034;20.656;2023-05-10T10:52:50;4.88;;;2.75;;
77298;SDS011;66361;52.034;20.656;2023-05-10T11:01:18;7.00;;;3.42;;
77298;SDS011;66361;52.034;20.656;2023-05-10T11:05:33;4.05;;;2.65;;
77298;SDS011;66361;52.034;20.656;2023-05-10T11:09:39;3.95;;;2.20;;
77298;SDS011;66361;52.034;20.656;2023-05-10T11:13:43;3.40;;;2.45;;
77298;SDS011;66361;52.034;20.656;2023-05-10T11:26:18;4.88;;;2.70;;
77298;SDS011;66361;52.034;20.656;2023-05-10T11:30:24;2.95;;;2.38;;
77298;SDS011;66361;52.034;20.656;2023-05-10T11:34:28;6.75;;;2.30;;
77298;SDS011;66361;52.034;20.656;2023-05-10T11:38:36;3.50;;;2.42;;
77298;SDS011;66361;52.034;20.656;2023-05-10T11:42:39;5.03;;;2.50;;
77298;SDS011;66361;52.034;20.656;2023-05-10T11:46:42;4.40;;;2.63;;
77298;SDS011;66361;52.034;20.656;2023-05-10T11:50:45;3.08;;;2.30;;
77298;SDS011;66361;52.034;20.656;2023-05-10T11:54:52;3.25;;;2.20;;
77298;SDS011;66361;52.034;20.656;2023-05-10T11:58:55;5.13;;;2.50;;
77298;SDS011;66361;52.034;20.656;2023-05-10T12:03:00;4.25;;;2.65;;
77298;SDS011;66361;52.034;20.656;2023-05-10T12:07:04;4.25;;;2.33;;
77298;SDS011;66361;52.034;20.656;2023-05-10T12:11:09;3.95;;;1.90;;
77298;SDS011;66361;52.034;20.656;2023-05-10T12:15:17;7.05;;;2.45;;
77298;SDS011;66361;52.034;20.656;2023-05-10T12:19:21;5.68;;;2.85;;
77298;SDS011;66361;52.034;20.656;2023-05-10T12:23:24;4.35;;;2.22;;
77298;SDS011;66361;52.034;20.656;2023-05-10T12:27:32;3.45;;;2.10;;
77298;SDS011;66361;52.034;20.656;2023-05-10T12:31:53;4.93;;;2.40;;
77298;SDS011;66361;52.034;20.656;2023-05-10T12:35:58;4.18;;;2.70;;
77298;SDS011;66361;52.034;20.656;2023-05-10T12:40:03;4.65;;;2.92;;
77298;SDS011;66361;52.034;20.656;2023-05-10T12:44:13;4.25;;;2.85;;
77298;SDS011;66361;52.034;20.656;2023-05-10T12:48:16;3.22;;;2.30;;
77298;SDS011;66361;52.034;20.656;2023-05-10T12:52:18;3.80;;;2.35;;
77298;SDS011;66361;52.034;20.656;2023-05-10T12:56:24;3.80;;;2.40;;
77298;SDS011;66361;52.034;20.656;2023-05-10T13:00:28;6.53;;;2.95;;
77298;SDS011;66361;52.034;20.656;2023-05-10T13:04:31;4.82;;;2.50;;
77298;SDS011;66361;52.034;20.656;2023-05-10T13:08:34;4.72;;;2.70;;
77298;SDS011;66361;52.034;20.656;2023-05-10T13:12:37;5.60;;;2.80;;
77298;SDS011;66361;52.034;20.656;2023-05-10T13:16:41;6.05;;;2.47;;
77298;SDS011;66361;52.034;20.656;2023-05-10T13:20:46;5.10;;;2.90;;
77298;SDS011;66361;52.034;20.656;2023-05-10T13:24:50;3.45;;;2.75;;
77298;SDS011;66361;52.034;20.656;2023-05-10T13:28:53;3.78;;;2.58;;
77298;SDS011;66361;52.034;20.656;2023-05-10T13:32:58;4.30;;;2.70;;
77298;SDS011;66361;52.034;20.656;2023-05-10T13:37:02;6.15;;;2.67;;
77298;SDS011;66361;52.034;20.656;2023-05-10T13:41:05;4.90;;;2.80;;
77298;SDS011;66361;52.034;20.656;2023-05-10T13:45:09;4.22;;;2.60;;
77298;SDS011;66361;52.034;20.656;2023-05-10T13:49:15;5.22;;;2.88;;
77298;SDS011;66361;52.034;20.656;2023-05-10T13:53:18;7.18;;;3.28;;
77298;SDS011;66361;52.034;20.656;2023-05-10T13:57:22;6.97;;;3.45;;
77298;SDS011;66361;52.034;20.656;2023-05-10T14:01:25;3.70;;;2.60;;
77298;SDS011;66361;52.034;20.656;2023-05-10T14:05:29;5.43;;;2.63;;
77298;SDS011;66361;52.034;20.656;2023-05-10T14:09:32;2.67;;;2.30;;
77298;SDS011;66361;52.034;20.656;2023-05-10T14:13:35;7.13;;;2.80;;
77298;SDS011;66361;52.034;20.656;2023-05-10T14:21:42;6.07;;;2.40;;
77298;SDS011;66361;52.034;20.656;2023-05-10T14:25:45;5.60;;;3.25;;
77298;SDS011;66361;52.034;20.656;2023-05-10T14:29:48;5.03;;;2.78;;
77298;SDS011;66361;52.034;20.656;2023-05-10T14:33:52;3.70;;;2.70;;
77298;SDS011;66361;52.034;20.656;2023-05-10T14:37:56;4.90;;;2.33;;
77298;SDS011;66361;52.034;20.656;2023-05-10T14:41:59;3.60;;;2.35;;
77298;SDS011;66361;52.034;20.656;2023-05-10T14:46:04;5.28;;;2.67;;
77298;SDS011;66361;52.034;20.656;2023-05-10T14:50:07;3.55;;;2.97;;
77298;SDS011;66361;52.034;20.656;2023-05-10T14:54:13;5.88;;;2.90;;
77298;SDS011;66361;52.034;20.656;2023-05-10T14:58:16;3.22;;;2.53;;
77298;SDS011;66361;52.034;20.656;2023-05-10T15:02:19;3.70;;;2.03;;
77298;SDS011;66361;52.034;20.656;2023-05-10T15:06:23;4.82;;;2.58;;
77298;SDS011;66361;52.034;20.656;2023-05-10T15:10:30;4.95;;;2.50;;
77298;SDS011;66361;52.034;20.656;2023-05-10T15:14:51;3.13;;;2.83;;
77298;SDS011;66361;52.034;20.656;2023-05-10T15:18:55;2.97;;;2.50;;
77298;SDS011;66361;52.034;20.656;2023-05-10T15:22:58;6.30;;;3.03;;
77298;SDS011;66361;52.034;20.656;2023-05-10T15:27:01;5.00;;;2.53;;
77298;SDS011;66361;52.034;20.656;2023-05-10T15:31:05;4.40;;;2.60;;
77298;SDS011;66361;52.034;20.656;2023-05-10T15:35:08;4.13;;;2.80;;
77298;SDS011;66361;52.034;20.656;2023-05-10T15:39:11;4.97;;;2.90;;
77298;SDS011;66361;52.034;20.656;2023-05-10T15:43:14;5.13;;;2.92;;
77298;SDS011;66361;52.034;20.656;2023-05-10T15:47:19;6.35;;;2.90;;
77298;SDS011;66361;52.034;20.656;2023-05-10T15:51:24;4.13;;;2.83;;
77298;SDS011;66361;52.034;20.656;2023-05-10T15:55:27;3.22;;;2.80;;
77298;SDS011;66361;52.034;20.656;2023-05-10T15:59:31;5.68;;;2.80;;
77298;SDS011;66361;52.034;20.656;2023-05-10T16:03:37;3.05;;;2.47;;
77298;SDS011;66361;52.034;20.656;2023-05-10T16:07:41;4.70;;;2.80;;
77298;SDS011;66361;52.034;20.656;2023-05-10T16:11:44;3.63;;;3.10;;
77298;SDS011;66361;52.034;20.656;2023-05-10T16:15:47;6.18;;;2.90;;
77298;SDS011;66361;52.034;20.656;2023-05-10T16:19:51;5.40;;;2.80;;
77298;SDS011;66361;52.034;20.656;2023-05-10T16:23:55;3.65;;;2.42;;
77298;SDS011;66361;52.034;20.656;2023-05-10T16:27:58;2.80;;;2.30;;
77298;SDS011;66361;52.034;20.656;2023-05-10T16:32:01;5.60;;;3.03;;
77298;SDS011;66361;52.034;20.656;2023-05-10T16:36:06;3.88;;;2.50;;
77298;SDS011;66361;52.034;20.656;2023-05-10T16:40:09;4.15;;;2.75;;
77298;SDS011;66361;52.034;20.656;2023-05-10T16:44:13;5.03;;;2.58;;
77298;SDS011;66361;52.034;20.656;2023-05-10T16:48:20;5.40;;;2.65;;
77298;SDS011;66361;52.034;20.656;2023-05-10T16:52:25;3.65;;;2.67;;
77298;SDS011;66361;52.034;20.656;2023-05-10T16:56:29;5.10;;;2.50;;
77298;SDS011;66361;52.034;20.656;2023-05-10T17:00:32;4.70;;;2.35;;
77298;SDS011;66361;52.034;20.656;2023-05-10T17:04:35;4.43;;;2.78;;
77298;SDS011;66361;52.034;20.656;2023-05-10T17:08:40;4.85;;;2.90;;
77298;SDS011;66361;52.034;20.656;2023-05-10T17:12:43;4.97;;;3.15;;
77298;SDS011;66361;52.034;20.656;2023-05-10T17:16:47;4.00;;;2.90;;
77298;SDS011;66361;52.034;20.656;2023-05-10T17:20:57;3.38;;;2.65;;
77298;SDS011;66361;52.034;20.656;2023-05-10T17:25:02;3.95;;;2.70;;
77298;SDS011;66361;52.034;20.656;2023-05-10T17:29:05;5.18;;;2.97;;
77298;SDS011;66361;52.034;20.656;2023-05-10T17:33:09;4.55;;;2.92;;
77298;SDS011;66361;52.034;20.656;2023-05-10T17:37:14;4.72;;;3.03;;
77298;SDS011;66361;52.034;20.656;2023-05-10T17:41:19;4.72;;;3.20;;
77298;SDS011;66361;52.034;20.656;2023-05-10T17:45:22;4.00;;;3.13;;
77298;SDS011;66361;52.034;20.656;2023-05-10T17:49:28;6.43;;;3.35;;
77298;SDS011;66361;52.034;20.656;2023-05-10T17:53:31;5.30;;;3.53;;
77298;SDS011;66361;52.034;20.656;2023-05-10T17:57:36;7.65;;;4.03;;
77298;SDS011;66361;52.034;20.656;2023-05-10T18:01:39;6.90;;;4.30;;
77298;SDS011;66361;52.034;20.656;2023-05-10T18:05:43;5.68;;;4.25;;
77298;SDS011;66361;52.034;20.656;2023-05-10T18:09:51;7.30;;;4.13;;
77298;SDS011;66361;52.034;20.656;2023-05-10T18:13:56;8.15;;;4.30;;
77298;SDS011;66361;52.034;20.656;2023-05-10T18:18:02;8.70;;;5.00;;
77298;SDS011;66361;52.034;20.656;2023-05-10T18:22:06;7.07;;;4.20;;
77298;SDS011;66361;52.034;20.656;2023-05-10T18:26:11;5.65;;;3.90;;
77298;SDS011;66361;52.034;20.656;2023-05-10T18:30:15;7.00;;;4.00;;
77298;SDS011;66361;52.034;20.656;2023-05-10T18:34:19;8.40;;;4.20;;
77298;SDS011;66361;52.034;20.656;2023-05-10T18:38:22;7.32;;;3.88;;
77298;SDS011;66361;52.034;20.656;2023-05-10T18:42:25;5.47;;;4.18;;
77298;SDS011;66361;52.034;20.656;2023-05-10T18:46:32;5.65;;;4.13;;
77298;SDS011;66361;52.034;20.656;2023-05-10T18:50:36;10.23;;;4.63;;
77298;SDS011;66361;52.034;20.656;2023-05-10T18:54:39;5.82;;;4.65;;
77298;SDS011;66361;52.034;20.656;2023-05-10T18:58:43;6.60;;;4.50;;
77298;SDS011;66361;52.034;20.656;2023-05-10T19:02:47;7.78;;;4.97;;
77298;SDS011;66361;52.034;20.656;2023-05-10T19:06:51;7.85;;;4.50;;
77298;SDS011;66361;52.034;20.656;2023-05-10T19:10:54;6.13;;;4.15;;
77298;SDS011;66361;52.034;20.656;2023-05-10T19:19:00;8.38;;;4.25;;
77298;SDS011;66361;52.034;20.656;2023-05-10T19:23:04;7.13;;;4.05;;
77298;SDS011;66361;52.034;20.656;2023-05-10T19:27:09;4.85;;;3.75;;
77298;SDS011;66361;52.034;20.656;2023-05-10T19:31:14;5.55;;;4.00;;
77298;SDS011;66361;52.034;20.656;2023-05-10T19:35:19;6.38;;;4.35;;
77298;SDS011;66361;52.034;20.656;2023-05-10T19:39:23;8.15;;;5.22;;
77298;SDS011;66361;52.034;20.656;2023-05-10T19:47:30;7.80;;;4.65;;
77298;SDS011;66361;52.034;20.656;2023-05-10T19:51:36;8.25;;;5.53;;
77298;SDS011;66361;52.034;20.656;2023-05-10T19:55:39;9.38;;;5.50;;
77298;SDS011;66361;52.034;20.656;2023-05-10T20:03:44;11.40;;;5.97;;
77298;SDS011;66361;52.034;20.656;2023-05-10T20:07:49;14.38;;;6.55;;
77298;SDS011;66361;52.034;20.656;2023-05-10T20:11:53;12.93;;;6.35;;
77298;SDS011;66361;52.034;20.656;2023-05-10T20:15:57;9.95;;;6.35;;
77298;SDS011;66361;52.034;20.656;2023-05-10T20:20:02;7.57;;;5.20;;
77298;SDS011;66361;52.034;20.656;2023-05-10T20:24:07;8.25;;;4.57;;
77298;SDS011;66361;52.034;20.656;2023-05-10T20:28:10;12.45;;;5.30;;
77298;SDS011;66361;52.034;20.656;2023-05-10T20:32:15;8.55;;;5.75;;
77298;SDS011;66361;52.034;20.656;2023-05-10T20:36:24;9.27;;;3.83;;
77298;SDS011;66361;52.034;20.656;2023-05-10T20:40:29;6.80;;;4.70;;
77298;SDS011;66361;52.034;20.656;2023-05-10T20:44:33;7.72;;;4.63;;
77298;SDS011;66361;52.034;20.656;2023-05-10T20:48:36;8.38;;;4.57;;
77298;SDS011;66361;52.034;20.656;2023-05-10T20:52:39;8.35;;;4.22;;
77298;SDS011;66361;52.034;20.656;2023-05-10T21:00:47;7.55;;;4.32;;
77298;SDS011;66361;52.034;20.656;2023-05-10T21:04:51;6.15;;;4.50;;
77298;SDS011;66361;52.034;20.656;2023-05-10T21:08:58;9.20;;;4.65;;
77298;SDS011;66361;52.034;20.656;2023-05-10T21:13:05;8.02;;;4.00;;
77298;SDS011;66361;52.034;20.656;2023-05-10T21:17:08;7.00;;;4.30;;
77298;SDS011;66361;52.034;20.656;2023-05-10T21:21:11;9.00;;;4.18;;
77298;SDS011;66361;52.034;20.656;2023-05-10T21:29:19;7.45;;;4.20;;
77298;SDS011;66361;52.034;20.656;2023-05-10T21:33:22;8.95;;;6.43;;
77298;SDS011;66361;52.034;20.656;2023-05-10T21:41:28;6.78;;;4.18;;
77298;SDS011;66361;52.034;20.656;2023-05-10T21:45:32;6.47;;;4.22;;
77298;SDS011;66361;52.034;20.656;2023-05-10T21:49:36;5.13;;;3.60;;
77298;SDS011;66361;52.034;20.656;2023-05-10T21:53:39;6.80;;;4.97;;
77298;SDS011;66361;52.034;20.656;2023-05-10T21:57:42;5.82;;;4.07;;
77298;SDS011;66361;52.034;20.656;2023-05-10T22:01:47;8.23;;;4.40;;
77298;SDS011;66361;52.034;20.656;2023-05-10T22:05:50;7.72;;;4.65;;
77298;SDS011;66361;52.034;20.656;2023-05-10T22:09:53;8.18;;;4.03;;
77298;SDS011;66361;52.034;20.656;2023-05-10T22:13:57;7.18;;;4.70;;
77298;SDS011;66361;52.034;20.656;2023-05-10T22:18:02;10.93;;;4.90;;
77298;SDS011;66361;52.034;20.656;2023-05-10T22:22:05;6.00;;;4.07;;
77298;SDS011;66361;52.034;20.656;2023-05-10T22:26:11;7.10;;;5.25;;
77298;SDS011;66361;52.034;20.656;2023-05-10T22:30:14;5.78;;;4.07;;
77298;SDS011;66361;52.034;20.656;2023-05-10T22:34:19;6.32;;;4.32;;
77298;SDS011;66361;52.034;20.656;2023-05-10T22:38:23;6.00;;;4.88;;
77298;SDS011;66361;52.034;20.656;2023-05-10T22:42:26;7.60;;;4.82;;
77298;SDS011;66361;52.034;20.656;2023-05-10T22:46:30;8.07;;;4.00;;
77298;SDS011;66361;52.034;20.656;2023-05-10T22:50:35;8.60;;;5.07;;
77298;SDS011;66361;52.034;20.656;2023-05-10T22:54:38;6.18;;;4.20;;
77298;SDS011;66361;52.034;20.656;2023-05-10T22:58:41;9.23;;;4.50;;
77298;SDS011;66361;52.034;20.656;2023-05-10T23:02:44;6.68;;;4.20;;
77298;SDS011;66361;52.034;20.656;2023-05-10T23:10:52;6.90;;;4.38;;
77298;SDS011;66361;52.034;20.656;2023-05-10T23:14:55;8.73;;;4.00;;
77298;SDS011;66361;52.034;20.656;2023-05-10T23:18:58;9.07;;;4.10;;
77298;SDS011;66361;52.034;20.656;2023-05-10T23:23:03;8.25;;;4.03;;
77298;SDS011;66361;52.034;20.656;2023-05-10T23:27:07;6.55;;;4.47;;
77298;SDS011;66361;52.034;20.656;2023-05-10T23:31:09;5.90;;;4.18;;
77298;SDS011;66361;52.034;20.656;2023-05-10T23:35:14;6.47;;;4.35;;
77298;SDS011;66361;52.034;20.656;2023-05-10T23:39:19;5.10;;;4.22;;
77298;SDS011;66361;52.034;20.656;2023-05-10T23:43:23;4.70;;;3.88;;
77298;SDS011;66361;52.034;20.656;2023-05-10T23:47:26;5.68;;;3.85;;
77298;SDS011;66361;52.034;20.656;2023-05-10T23:51:29;5.30;;;3.97;;
77298;SDS011;66361;52.034;20.656;2023-05-10T23:55:34;12.05;;;4.13;;
77298;SDS011;66361;52.034;20.656;2023-05-10T23:59:37;7.07;;;4.32;;
